Hall Beach, Canada
Current Conditions -  °F | °C
As of 4:42 AM on Friday 28 Nov 2014 (Local Time) from CYUX Reporting Station
Light Snow Light Snow  
Wind Chill: -44°   Ceiling: 1100
Heat Index: -20°   Visibility: 1.5mi
Dew Point: -26°   Wind: 14mph
Humidity: 76%   Direction: 330°NNW
Pressure: 29.55"   Gusts: NA
Location:  68.78°N, 81.22°W
Report Text: CYUX 280942Z AUTO 33012KT 1 1/2SM -SN BKN011 BKN017 M29/M32 A2955 RMK SLP008
Loading
Personal Weather Stations






























Interactive Weather Map New forecast layout! Learn more

10-Day Weather Forecast

Advertisements
Track Severe Weather on mobile